Time;durP1;ratioP1;P1;durP2;ratioP2;P2;SDS_P1;SDS_P2;PMS_P1;PMS_P2;Temp;Humidity;BMP_temperature;BMP_pressure;BME280_temperature;BME280_humidity;BME280_pressure;Samples;Min_cycle;Max_cycle;Signal;HPM_P1;HPM_P2
2022/01/09 15:01:27;;;;;;;;;;;-0.90;99.90;;;;;;5113096;27;19912;-93
2022/01/09 15:03:54;;;;;;;;;;;-0.90;99.90;;;;;;5094049;28;19912;-94
2022/01/09 15:06:20;;;;;;;;;;;-0.80;99.90;;;;;;5079228;28;19908;-94
2022/01/09 15:08:46;;;;;;;;;;;-0.70;99.90;;;;;;5073648;28;20008;-94
2022/01/09 15:11:11;;;;;;;;;;;-0.70;99.90;;;;;;5074047;28;20361;-93
2022/01/09 15:13:37;;;;;;;;;;;-0.50;99.90;;;;;;5091644;28;19943;-93
2022/01/09 15:16:03;;;;;;;;;;;-0.40;99.90;;;;;;5079519;28;20369;-92
2022/01/09 15:18:28;;;;;;;;;;;-0.30;99.90;;;;;;5076438;28;19973;-93
2022/01/09 15:20:57;;;;;;;;;;;-0.20;99.90;;;;;;5098662;28;19923;-95
2022/01/09 15:23:23;;;;;;;;;;;-0.10;99.90;;;;;;5081090;28;20288;-92
2022/01/09 15:25:48;;;;;;;;;;;-0.10;99.90;;;;;;5094148;28;20012;-93
2022/01/09 15:28:15;;;;;;;;;;;0.00;99.90;;;;;;5091234;28;20010;-94
2022/01/09 15:30:42;;;;;;;;;;;0.10;99.90;;;;;;5077350;28;19943;-94
2022/01/09 15:33:09;;;;;;;;;;;0.10;99.90;;;;;;5073335;28;19923;-94
2022/01/09 15:35:34;;;;;;;;;;;0.20;99.90;;;;;;5073374;28;19944;-94
2022/01/09 15:38:00;;;;;;;;;;;0.20;99.90;;;;;;5073416;28;19916;-94
2022/01/09 15:40:26;;;;;;;;;;;0.30;99.90;;;;;;5074851;28;19920;-93
2022/01/09 15:42:52;;;;;;;;;;;0.30;99.90;;;;;;5073693;28;19913;-94
2022/01/09 15:45:18;;;;;;;;;;;0.30;99.90;;;;;;5073094;28;19908;-93
2022/01/09 15:47:44;;;;;;;;;;;0.40;99.90;;;;;;5072940;28;19916;-94
2022/01/09 15:50:09;;;;;;;;;;;0.40;99.90;;;;;;5078930;28;19944;-95
2022/01/09 15:52:35;;;;;;;;;;;0.40;99.90;;;;;;5093224;28;19908;-94
2022/01/09 15:55:00;;;;;;;;;;;0.50;99.90;;;;;;5093118;28;19908;-95
2022/01/09 15:57:29;;;;;;;;;;;0.50;99.90;;;;;;5089865;28;19927;-95
2022/01/09 15:59:55;;;;;;;;;;;0.50;99.90;;;;;;5078366;28;19931;-95
2022/01/09 16:02:20;;;;;;;;;;;0.50;99.90;;;;;;5082212;28;19908;-94
2022/01/09 16:04:46;;;;;;;;;;;0.50;99.90;;;;;;5081091;28;19916;-94
2022/01/09 16:07:12;;;;;;;;;;;0.60;99.90;;;;;;5073288;28;19909;-95
2022/01/09 16:09:38;;;;;;;;;;;0.60;99.90;;;;;;5072432;28;19998;-95
2022/01/09 16:12:08;;;;;;;;;;;0.60;99.90;;;;;;5063158;28;19909;-94
2022/01/09 16:14:34;;;;;;;;;;;0.60;99.90;;;;;;5059291;28;19908;-94
2022/01/09 16:17:00;;;;;;;;;;;0.60;99.90;;;;;;5063126;28;19927;-94
2022/01/09 16:19:26;;;;;;;;;;;0.60;99.90;;;;;;5059028;28;19912;-93
2022/01/09 16:21:51;;;;;;;;;;;0.60;99.90;;;;;;5059255;28;19934;-95
2022/01/09 16:24:17;;;;;;;;;;;0.60;99.90;;;;;;5058934;28;19908;-93
2022/01/09 16:26:42;;;;;;;;;;;0.70;99.90;;;;;;5062877;28;19920;-93
2022/01/09 16:29:13;;;;;;;;;;;0.60;99.90;;;;;;5078606;28;19908;-93
2022/01/09 16:31:42;;;;;;;;;;;0.70;99.90;;;;;;5078823;28;19908;-93
2022/01/09 16:34:08;;;;;;;;;;;0.70;99.90;;;;;;5078769;28;19908;-92
2022/01/09 16:36:34;;;;;;;;;;;0.70;99.90;;;;;;5078634;28;20253;-92
2022/01/09 16:38:59;;;;;;;;;;;0.70;99.90;;;;;;5078623;28;19931;-93
2022/01/09 16:41:25;;;;;;;;;;;0.70;99.90;;;;;;5078565;28;19915;-93
2022/01/09 16:43:53;;;;;;;;;;;0.70;99.90;;;;;;5078471;28;20375;-92
2022/01/09 16:46:19;;;;;;;;;;;0.80;99.90;;;;;;5065649;28;20315;-94
2022/01/09 16:48:45;;;;;;;;;;;0.80;99.90;;;;;;5078347;28;20007;-92
2022/01/09 16:51:10;;;;;;;;;;;0.80;99.90;;;;;;5096336;28;20407;-93
2022/01/09 16:53:37;;;;;;;;;;;0.80;99.90;;;;;;5069215;28;19920;-92
2022/01/09 16:56:04;;;;;;;;;;;0.80;99.90;;;;;;5065027;28;19918;-92
2022/01/09 16:58:29;;;;;;;;;;;0.80;99.90;;;;;;5058106;28;19962;-92
2022/01/09 18:24:03;;;;;;;;;;;-0.20;99.90;;;;;;5132551;27;19912;-93
2022/01/09 18:26:29;;;;;;;;;;;-0.20;99.90;;;;;;5137079;27;20337;-93
2022/01/09 18:28:56;;;;;;;;;;;-0.10;99.90;;;;;;5122259;28;20010;-93
2022/01/09 18:31:24;;;;;;;;;;;0.00;99.90;;;;;;5119534;28;19912;-94
2022/01/09 18:33:49;;;;;;;;;;;0.10;99.90;;;;;;5122981;28;19968;-94
2022/01/09 18:36:15;;;;;;;;;;;0.20;99.90;;;;;;5132708;28;20316;-96
2022/01/09 18:38:40;;;;;;;;;;;0.30;99.90;;;;;;5126826;28;19911;-91
2022/01/09 18:41:06;;;;;;;;;;;0.40;99.90;;;;;;5126970;28;20249;-90
2022/01/09 18:43:33;;;;;;;;;;;0.50;99.90;;;;;;5131218;28;19912;-91
2022/01/09 18:45:59;;;;;;;;;;;0.60;99.90;;;;;;5131316;28;19994;-91
